Time;durP1;ratioP1;P1;durP2;ratioP2;P2;SDS_P1;SDS_P2;PMS_P1;PMS_P2;Temp;Humidity;BMP_temperature;BMP_pressure;BME280_temperature;BME280_humidity;BME280_pressure;Samples;Min_cycle;Max_cycle;Signal;HPM_P1;HPM_P2
2022/08/25 00:01:38;;;;;;;9.32;7.85;;;25.50;77.00;;;;;;5012353;28;20022;-76
2022/08/25 00:04:09;;;;;;;8.10;7.30;;;25.50;77.00;;;;;;5011648;28;20025;-76
2022/08/25 00:06:35;;;;;;;7.53;6.65;;;25.50;76.00;;;;;;5007533;28;20104;-76
2022/08/25 00:09:01;;;;;;;7.07;6.35;;;25.50;75.80;;;;;;5010253;28;20036;-76
2022/08/25 00:11:29;;;;;;;7.72;6.93;;;25.50;76.20;;;;;;5018509;28;20022;-76
2022/08/25 00:14:00;;;;;;;7.05;6.25;;;25.50;76.80;;;;;;5008531;28;20534;-76
2022/08/25 00:16:27;;;;;;;8.93;7.85;;;25.50;76.70;;;;;;5007520;28;20030;-76
2022/08/25 00:18:57;;;;;;;8.73;6.95;;;25.40;77.10;;;;;;5025353;28;20030;-76
2022/08/25 00:21:24;;;;;;;8.07;6.95;;;25.40;77.30;;;;;;5017561;28;20032;-77
2022/08/25 00:23:50;;;;;;;7.10;6.40;;;25.40;77.40;;;;;;5011293;28;20562;-77
2022/08/25 00:26:17;;;;;;;8.00;7.20;;;25.40;77.30;;;;;;5009801;28;20395;-77
2022/08/25 00:28:43;;;;;;;8.60;7.35;;;25.40;77.30;;;;;;5013118;28;20467;-78
2022/08/25 00:31:18;;;;;;;10.00;7.13;;;25.40;77.20;;;;;;5009673;28;20084;-78
2022/08/25 00:33:46;;;;;;;7.57;6.30;;;25.40;77.10;;;;;;5012230;28;20029;-76
2022/08/25 00:36:13;;;;;;;7.85;6.63;;;25.30;77.20;;;;;;5019867;28;20022;-76
2022/08/25 00:38:41;;;;;;;9.27;7.32;;;25.30;77.10;;;;;;5014653;28;20025;-77
2022/08/25 00:41:09;;;;;;;7.80;7.00;;;25.30;77.10;;;;;;5007012;28;20085;-77
2022/08/25 00:43:46;;;;;;;7.40;6.65;;;25.30;77.10;;;;;;5017004;28;20045;-77
2022/08/25 00:46:17;;;;;;;7.65;6.95;;;25.30;77.30;;;;;;5008526;28;20026;-78
2022/08/25 00:48:45;;;;;;;7.40;6.68;;;25.30;77.30;;;;;;4990009;28;20521;-77
2022/08/25 00:51:14;;;;;;;7.45;6.75;;;25.30;77.30;;;;;;5028134;28;20045;-75
2022/08/25 00:53:42;;;;;;;7.32;6.63;;;25.30;77.40;;;;;;4998920;28;20065;-77
2022/08/25 00:56:09;;;;;;;7.65;6.95;;;25.30;77.30;;;;;;5000774;28;20049;-77
2022/08/25 00:58:36;;;;;;;8.95;7.35;;;25.20;77.10;;;;;;5004083;28;20095;-77
2022/08/25 01:01:01;;;;;;;7.68;6.97;;;25.20;77.10;;;;;;5006400;28;20026;-77
2022/08/25 01:03:32;;;;;;;6.90;6.30;;;25.20;77.30;;;;;;5010734;28;20071;-77
2022/08/25 01:06:00;;;;;;;8.45;7.00;;;25.20;77.30;;;;;;5011231;28;20372;-76
2022/08/25 01:08:28;;;;;;;7.10;6.40;;;25.20;77.20;;;;;;5027142;28;20171;-76
2022/08/25 01:10:57;;;;;;;7.95;7.25;;;25.20;77.40;;;;;;5006527;28;20560;-76
2022/08/25 01:13:32;;;;;;;7.97;7.07;;;25.20;77.40;;;;;;5010590;28;20474;-77
2022/08/25 01:15:58;;;;;;;7.57;6.85;;;25.20;77.30;;;;;;5004332;28;20026;-76
2022/08/25 01:18:26;;;;;;;6.82;6.22;;;25.20;77.60;;;;;;5010006;28;20155;-75
2022/08/25 01:20:53;;;;;;;9.15;6.72;;;25.20;77.60;;;;;;5018358;28;20030;-77
2022/08/25 01:23:21;;;;;;;8.45;6.60;;;25.20;77.60;;;;;;5028716;28;20112;-77
2022/08/25 01:26:06;;;;;;;11.70;7.28;;;25.20;77.70;;;;;;5005791;28;20034;-75
2022/08/25 01:28:33;;;;;;;7.65;6.75;;;25.20;77.60;;;;;;5007436;28;20042;-77
2022/08/25 01:31:00;;;;;;;7.22;6.38;;;25.10;77.60;;;;;;5008330;28;20038;-77
2022/08/25 01:33:26;;;;;;;7.47;6.78;;;25.10;77.70;;;;;;5026960;28;20124;-77
2022/08/25 01:35:53;;;;;;;7.60;6.90;;;25.10;77.70;;;;;;5001719;28;20026;-76
2022/08/25 01:38:19;;;;;;;8.40;7.32;;;25.10;77.70;;;;;;5010591;28;20030;-77
2022/08/25 01:40:46;;;;;;;7.88;7.07;;;25.10;77.80;;;;;;5007920;28;20501;-77
2022/08/25 01:43:16;;;;;;;6.72;6.13;;;25.10;77.50;;;;;;5009789;28;20041;-76
2022/08/25 01:45:45;;;;;;;9.15;7.22;;;25.10;77.80;;;;;;5001441;28;20033;-77
2022/08/25 01:48:13;;;;;;;8.65;6.25;;;25.10;77.20;;;;;;5005795;28;20448;-77
2022/08/25 01:50:40;;;;;;;7.15;6.28;;;25.10;77.30;;;;;;5007641;28;20410;-76
2022/08/25 01:53:27;;;;;;;7.70;7.00;;;25.10;77.60;;;;;;5007579;28;20025;-77
2022/08/25 01:55:54;;;;;;;15.05;9.02;;;25.10;77.80;;;;;;5020926;28;20034;-77
2022/08/25 01:58:26;;;;;;;8.57;7.32;;;25.00;77.90;;;;;;5004059;28;20057;-77
2022/08/25 02:00:54;;;;;;;7.68;6.97;;;25.00;78.00;;;;;;5009718;28;20092;-77
2022/08/25 02:03:21;;;;;;;7.53;6.78;;;25.00;78.00;;;;;;4997518;28;20036;-77
2022/08/25 02:05:47;;;;;;;8.50;7.55;;;25.00;78.10;;;;;;5010603;28;20087;-77
2022/08/25 02:08:13;;;;;;;7.65;6.95;;;25.00;78.00;;;;;;5009162;28;20292;-77
2022/08/25 02:10:40;;;;;;;9.35;7.30;;;25.00;78.10;;;;;;5011496;28;20030;-77
2022/08/25 02:13:07;;;;;;;7.97;7.20;;;25.00;78.20;;;;;;5020583;28;20049;-77
2022/08/25 02:15:33;;;;;;;7.90;6.97;;;25.00;78.10;;;;;;5011628;28;20026;-77
2022/08/25 02:17:59;;;;;;;8.02;7.22;;;25.00;78.20;;;;;;5004302;28;20336;-77
2022/08/25 02:20:25;;;;;;;7.80;7.10;;;25.00;78.20;;;;;;5000300;28;20041;-76
2022/08/25 02:22:52;;;;;;;8.77;7.82;;;25.00;78.20;;;;;;5004828;28;20121;-76
2022/08/25 02:25:18;;;;;;;7.50;6.80;;;25.00;78.20;;;;;;5021241;28;20502;-77
2022/08/25 02:27:45;;;;;;;7.82;7.03;;;24.90;78.30;;;;;;5009882;28;20104;-76
2022/08/25 02:30:13;;;;;;;9.15;6.75;;;24.90;78.30;;;;;;5002651;28;20532;-76
2022/08/25 02:32:39;;;;;;;7.40;6.65;;;24.90;78.40;;;;;;5006776;28;20028;-77
2022/08/25 02:35:06;;;;;;;9.35;7.18;;;24.90;78.40;;;;;;5013275;28;20084;-77
2022/08/25 02:37:32;;;;;;;6.90;6.25;;;24.90;78.40;;;;;;5007580;28;20026;-77
2022/08/25 02:39:58;;;;;;;6.60;6.00;;;24.90;78.40;;;;;;5011823;28;20479;-77
2022/08/25 02:42:25;;;;;;;7.45;6.75;;;24.90;78.30;;;;;;5012335;28;20495;-77
2022/08/25 02:44:51;;;;;;;7.50;6.70;;;24.90;78.40;;;;;;5008589;28;20046;-76
2022/08/25 02:47:17;;;;;;;8.82;6.65;;;24.90;78.90;;;;;;5009778;28;20448;-76
2022/08/25 02:49:43;;;;;;;8.80;7.07;;;24.80;78.30;;;;;;5027296;28;20402;-77
2022/08/25 02:52:10;;;;;;;7.35;6.65;;;24.90;78.40;;;;;;5008483;28;20026;-77
2022/08/25 02:54:36;;;;;;;7.05;5.97;;;24.80;78.30;;;;;;5002761;28;20022;-76
2022/08/25 02:57:02;;;;;;;6.25;5.75;;;24.80;78.30;;;;;;5003117;28;20125;-77
2022/08/25 02:59:28;;;;;;;12.23;5.78;;;24.80;78.30;;;;;;5012655;28;20036;-77
2022/08/25 03:01:53;;;;;;;6.93;5.63;;;24.80;78.50;;;;;;4988311;28;20022;-75
2022/08/25 03:04:19;;;;;;;6.90;6.00;;;24.80;78.60;;;;;;5009403;28;20044;-76
2022/08/25 03:06:45;;;;;;;7.97;6.00;;;24.70;78.50;;;;;;5010847;28;20030;-77
2022/08/25 03:09:11;;;;;;;9.52;5.95;;;24.70;78.60;;;;;;5005746;28;20034;-77
2022/08/25 03:11:37;;;;;;;6.30;5.70;;;24.70;78.60;;;;;;5008394;28;20048;-76
2022/08/25 03:14:08;;;;;;;5.85;5.20;;;24.70;78.60;;;;;;5009036;28;20091;-77
2022/08/25 03:16:34;;;;;;;8.32;5.90;;;24.70;78.70;;;;;;5002386;28;20049;-77
2022/08/25 03:19:00;;;;;;;6.25;5.07;;;24.70;78.70;;;;;;5003469;28;20040;-77
2022/08/25 03:21:27;;;;;;;6.32;5.72;;;24.70;78.90;;;;;;5006582;28;20022;-75
2022/08/25 03:23:54;;;;;;;6.30;5.70;;;24.70;78.90;;;;;;5005427;28;20136;-75
2022/08/25 03:29:05;;;;;;;6.05;5.40;;;24.70;79.00;;;;;;5015951;28;20036;-76
2022/08/25 03:31:32;;;;;;;5.55;4.93;;;24.60;79.00;;;;;;5005376;28;20041;-76
2022/08/25 03:33:58;;;;;;;7.95;5.72;;;24.60;79.10;;;;;;5011472;28;20077;-76
2022/08/25 03:36:25;;;;;;;5.45;4.95;;;24.60;79.10;;;;;;5020224;28;20359;-76
2022/08/25 03:38:51;;;;;;;6.80;5.57;;;24.60;79.20;;;;;;5007311;28;20026;-76
2022/08/25 03:41:24;;;;;;;5.85;5.25;;;24.60;79.10;;;;;;5004430;28;20038;-75
2022/08/25 03:43:50;;;;;;;;;;;24.60;79.20;;;;;;5016944;28;20510;-76
2022/08/25 03:46:22;;;;;;;6.13;5.30;;;24.60;79.30;;;;;;4997642;28;19982;-76
2022/08/25 03:48:50;;;;;;;7.13;5.55;;;24.60;79.30;;;;;;5013781;28;20304;-76
2022/08/25 03:51:20;;;;;;;6.35;5.03;;;24.50;79.30;;;;;;5019362;28;20025;-76
2022/08/25 03:53:46;;;;;;;6.35;5.75;;;24.50;79.40;;;;;;5017896;28;20054;-76
2022/08/25 03:56:12;;;;;;;8.23;5.30;;;24.50;79.30;;;;;;5003046;28;20022;-76
2022/08/25 03:58:37;;;;;;;7.00;5.45;;;24.50;79.40;;;;;;5008427;28;20041;-76
2022/08/25 04:01:03;;;;;;;5.63;5.07;;;24.50;79.50;;;;;;5005819;28;20034;-76
2022/08/25 04:03:29;;;;;;;6.75;5.30;;;24.50;79.50;;;;;;4999321;28;20046;-76
2022/08/25 04:05:59;;;;;;;10.00;5.22;;;24.50;79.50;;;;;;5006629;28;20062;-75
2022/08/25 04:08:25;;;;;;;5.57;5.03;;;24.50;79.50;;;;;;4998477;28;20038;-76
2022/08/25 04:10:50;;;;;;;6.68;5.35;;;24.50;79.60;;;;;;5000491;28;20241;-76
2022/08/25 04:13:17;;;;;;;8.35;4.93;;;24.50;79.60;;;;;;5013349;28;20494;-75
2022/08/25 04:15:43;;;;;;;5.63;5.00;;;24.50;79.70;;;;;;5008797;28;20018;-75
2022/08/25 04:18:10;;;;;;;8.40;5.55;;;24.40;79.60;;;;;;5000861;28;20479;-75
2022/08/25 04:20:36;;;;;;;8.07;5.47;;;24.50;79.70;;;;;;5011358;28;20026;-75
2022/08/25 04:23:02;;;;;;;5.80;5.10;;;24.40;79.70;;;;;;4981915;28;20077;-75
2022/08/25 04:25:29;;;;;;;6.60;5.28;;;24.40;79.70;;;;;;5007400;28;20119;-76
2022/08/25 04:27:55;;;;;;;5.72;4.85;;;24.40;79.80;;;;;;5004506;28;20527;-76
2022/08/25 04:30:20;;;;;;;6.13;5.10;;;24.40;79.90;;;;;;5006982;28;20115;-75
2022/08/25 04:32:47;;;;;;;8.15;6.00;;;24.40;79.80;;;;;;5000061;28;20451;-76
2022/08/25 04:35:14;;;;;;;6.38;4.82;;;24.40;79.90;;;;;;5007478;28;20105;-76
2022/08/25 04:37:40;;;;;;;6.45;4.70;;;24.40;80.00;;;;;;5009830;28;20025;-76
2022/08/25 04:40:07;;;;;;;5.00;4.50;;;24.30;79.90;;;;;;5010436;28;20037;-75
2022/08/25 04:42:33;;;;;;;5.78;5.18;;;24.30;80.00;;;;;;5000896;28;20391;-75
2022/08/25 04:45:00;;;;;;;9.70;6.15;;;24.30;80.00;;;;;;5010648;28;20036;-76
2022/08/25 04:47:27;;;;;;;5.85;4.82;;;24.30;80.20;;;;;;5010448;28;20026;-75
2022/08/25 04:49:53;;;;;;;6.07;5.15;;;24.30;80.10;;;;;;5010889;28;20040;-75
2022/08/25 04:52:19;;;;;;;8.98;5.00;;;24.30;80.20;;;;;;5012623;28;20561;-76
2022/08/25 04:54:46;;;;;;;5.32;4.57;;;24.30;80.20;;;;;;5006295;28;20069;-75
2022/08/25 04:57:11;;;;;;;7.40;5.47;;;24.30;80.30;;;;;;5010580;28;20103;-75
2022/08/25 04:59:38;;;;;;;8.02;5.15;;;24.30;80.20;;;;;;5011277;28;20069;-76
2022/08/25 05:02:05;;;;;;;7.45;5.68;;;24.20;80.30;;;;;;5005155;28;20029;-76
2022/08/25 05:04:34;;;;;;;16.83;7.13;;;24.20;80.30;;;;;;4999383;28;20038;-76
2022/08/25 05:07:00;;;;;;;5.80;4.97;;;24.20;80.40;;;;;;5010298;28;20061;-76
2022/08/25 05:09:26;;;;;;;5.75;4.78;;;24.20;80.40;;;;;;5006688;28;20497;-76
2022/08/25 05:11:53;;;;;;;6.05;5.13;;;24.20;80.50;;;;;;5005772;28;20030;-75
2022/08/25 05:14:21;;;;;;;9.68;6.03;;;24.20;80.60;;;;;;5017421;28;20033;-76
2022/08/25 05:16:48;;;;;;;5.82;5.22;;;24.20;80.60;;;;;;4999745;28;20018;-75
2022/08/25 05:19:13;;;;;;;10.20;5.63;;;24.20;80.70;;;;;;5011374;28;20108;-76
2022/08/25 05:21:40;;;;;;;8.75;4.97;;;24.20;80.70;;;;;;5014658;28;20109;-76
2022/08/25 05:24:06;;;;;;;7.20;5.15;;;24.20;80.80;;;;;;4984213;28;20045;-76
2022/08/25 05:26:33;;;;;;;9.88;5.18;;;24.20;80.80;;;;;;5010344;28;20026;-77
2022/08/25 05:29:03;;;;;;;6.80;5.82;;;24.20;80.80;;;;;;5006890;28;20026;-77
2022/08/25 05:31:30;;;;;;;6.80;5.72;;;24.20;80.90;;;;;;5005778;28;20046;-77
2022/08/25 05:33:56;;;;;;;6.60;5.75;;;24.10;80.90;;;;;;5010059;28;20026;-77
2022/08/25 05:36:23;;;;;;;12.35;5.20;;;24.10;81.60;;;;;;5008417;28;20085;-77
2022/08/25 05:38:50;;;;;;;7.32;5.55;;;24.10;81.10;;;;;;5006813;28;20018;-76
2022/08/25 05:41:19;;;;;;;6.03;5.43;;;24.10;81.10;;;;;;5006920;28;20041;-76
2022/08/25 05:43:47;;;;;;;5.35;4.68;;;24.10;81.10;;;;;;5017243;28;20030;-76
2022/08/25 05:46:14;;;;;;;6.22;5.53;;;24.10;81.10;;;;;;5017937;28;20046;-76
2022/08/25 05:48:40;;;;;;;6.38;5.72;;;24.10;81.10;;;;;;5017643;28;20022;-76
2022/08/25 05:51:11;;;;;;;6.68;6.03;;;24.10;81.10;;;;;;5012366;28;20113;-76
2022/08/25 05:53:40;;;;;;;6.13;5.30;;;24.10;81.10;;;;;;5012068;28;20504;-75
2022/08/25 05:56:06;;;;;;;6.13;5.53;;;24.10;81.10;;;;;;5009047;28;20029;-76
2022/08/25 05:58:32;;;;;;;6.80;5.45;;;24.10;81.10;;;;;;5012479;28;20458;-76
2022/08/25 06:02:39;;;;;;;6.28;5.43;;;24.10;81.20;;;;;;5007675;28;20394;-76
2022/08/25 06:03:48;;;;;;;7.05;6.32;;;24.10;81.20;;;;;;5008863;28;20505;-76
2022/08/25 06:06:17;;;;;;;7.05;5.75;;;24.10;81.20;;;;;;5008534;28;20117;-76
2022/08/25 06:08:43;;;;;;;7.68;6.75;;;24.10;81.20;;;;;;5007217;28;20057;-75
2022/08/25 06:11:11;;;;;;;9.73;6.28;;;24.10;81.20;;;;;;5009720;28;20046;-76
2022/08/25 06:13:38;;;;;;;8.05;6.45;;;24.10;81.30;;;;;;5004928;28;20150;-75
2022/08/25 06:16:04;;;;;;;7.43;6.20;;;24.10;81.30;;;;;;5006443;28;20422;-75
2022/08/25 06:18:29;;;;;;;6.85;6.25;;;24.10;82.00;;;;;;5001243;28;20505;-76
2022/08/25 06:20:55;;;;;;;9.00;6.90;;;24.10;81.40;;;;;;5003596;28;20038;-76
2022/08/25 06:23:21;;;;;;;8.82;7.30;;;24.10;81.40;;;;;;5005413;28;20045;-76
2022/08/25 06:25:51;;;;;;;8.75;6.43;;;24.10;81.40;;;;;;5014485;28;20236;-75
2022/08/25 06:28:18;;;;;;;8.85;7.68;;;24.10;81.40;;;;;;5006000;28;20059;-75
2022/08/25 06:30:45;;;;;;;9.25;7.47;;;24.10;81.60;;;;;;5010760;28;20038;-76
2022/08/25 06:33:11;;;;;;;7.85;7.07;;;24.10;81.60;;;;;;4993793;28;20164;-75
2022/08/25 06:35:39;;;;;;;9.30;7.82;;;24.10;81.60;;;;;;5007665;28;20456;-75
2022/08/25 06:38:05;;;;;;;6.82;6.03;;;24.10;81.40;;;;;;5005885;28;20028;-76
2022/08/25 06:40:31;;;;;;;8.25;7.13;;;24.10;81.50;;;;;;5004393;28;20046;-76
2022/08/25 06:42:57;;;;;;;8.45;7.55;;;24.10;81.00;;;;;;5011734;28;20057;-75
2022/08/25 06:45:22;;;;;;;8.02;7.22;;;24.10;81.40;;;;;;5007343;28;20052;-75
2022/08/25 06:47:48;;;;;;;7.88;7.07;;;24.10;81.50;;;;;;5013288;28;20421;-76
2022/08/25 06:50:14;;;;;;;8.80;7.10;;;24.10;81.50;;;;;;5010106;28;20392;-75
2022/08/25 06:52:40;;;;;;;11.75;8.43;;;24.10;81.40;;;;;;5006403;28;20119;-75
2022/08/25 06:55:06;;;;;;;8.18;7.35;;;24.10;81.60;;;;;;5011403;28;20022;-75
2022/08/25 06:57:34;;;;;;;9.30;8.05;;;24.10;81.50;;;;;;5006512;28;20542;-75
2022/08/25 07:00:01;;;;;;;7.43;6.65;;;24.10;81.60;;;;;;5008943;28;20469;-75
2022/08/25 07:02:27;;;;;;;8.90;7.40;;;24.10;81.50;;;;;;5003176;28;20054;-76
2022/08/25 07:04:53;;;;;;;8.48;7.30;;;24.10;81.60;;;;;;5009800;28;20107;-75
2022/08/25 07:07:19;;;;;;;8.80;7.85;;;24.10;81.60;;;;;;5005971;28;20372;-75
2022/08/25 07:09:45;;;;;;;8.43;7.63;;;24.10;81.60;;;;;;5005560;28;20076;-75
2022/08/25 07:12:11;;;;;;;10.05;8.88;;;24.10;81.70;;;;;;5006084;28;20030;-76
2022/08/25 07:14:37;;;;;;;9.85;8.85;;;24.10;81.80;;;;;;5000639;28;20018;-76
2022/08/25 07:17:03;;;;;;;8.27;7.25;;;24.10;81.90;;;;;;5006432;28;20112;-75
2022/08/25 07:19:28;;;;;;;8.98;7.97;;;24.10;81.70;;;;;;5006874;28;20049;-75
2022/08/25 07:21:54;;;;;;;9.27;8.18;;;24.10;81.70;;;;;;5002752;28;20065;-76
2022/08/25 07:24:21;;;;;;;11.93;9.23;;;24.10;81.60;;;;;;5005441;28;20550;-76
2022/08/25 07:26:47;;;;;;;9.55;8.57;;;24.10;81.80;;;;;;5003342;28;20032;-75
2022/08/25 07:29:20;;;;;;;10.73;9.43;;;24.10;81.90;;;;;;5005151;28;20030;-75
2022/08/25 07:31:46;;;;;;;10.68;8.52;;;24.10;81.90;;;;;;5005811;28;20021;-75
2022/08/25 07:36:57;;;;;;;9.82;7.72;;;24.10;81.90;;;;;;5004706;28;20127;-75
2022/08/25 07:39:24;;;;;;;8.80;7.90;;;24.10;81.80;;;;;;5009293;28;20437;-75
2022/08/25 07:41:50;;;;;;;8.75;7.63;;;24.10;82.00;;;;;;5013184;28;20053;-75
2022/08/25 07:44:16;;;;;;;11.32;8.93;;;24.10;81.80;;;;;;5005994;28;20026;-75
2022/08/25 07:46:42;;;;;;;10.38;8.05;;;24.10;82.00;;;;;;5002987;28;20033;-75
2022/08/25 07:49:08;;;;;;;10.57;9.50;;;24.10;82.10;;;;;;5009689;28;20049;-75
2022/08/25 07:51:34;;;;;;;10.45;9.25;;;24.10;82.50;;;;;;5007963;28;20105;-75
2022/08/25 07:54:00;;;;;;;10.95;9.05;;;24.10;82.70;;;;;;5012712;28;20141;-75
2022/08/25 07:56:26;;;;;;;9.80;7.78;;;24.10;82.30;;;;;;5010192;28;20474;-75
2022/08/25 07:58:52;;;;;;;9.07;8.18;;;24.10;82.20;;;;;;5003781;28;20022;-75
2022/08/25 08:01:21;;;;;;;9.60;8.63;;;24.10;82.00;;;;;;5023468;28;20037;-75
2022/08/25 08:03:47;;;;;;;11.27;9.82;;;24.10;82.50;;;;;;5006862;28;20026;-75
2022/08/25 08:06:16;;;;;;;13.50;8.60;;;24.20;82.60;;;;;;5004479;28;20038;-75
2022/08/25 08:08:44;;;;;;;9.63;8.63;;;24.10;82.20;;;;;;5007039;28;20513;-75
2022/08/25 08:11:17;;;;;;;10.15;9.07;;;24.10;82.10;;;;;;5008827;28;20467;-75
2022/08/25 08:13:44;;;;;;;;;;;24.20;82.40;;;;;;5007481;28;20108;-75
2022/08/25 08:16:13;;;;;;;12.82;9.88;;;24.10;82.50;;;;;;5009813;28;19932;-75
2022/08/25 08:18:39;;;;;;;9.80;8.90;;;24.10;82.50;;;;;;4999397;28;20022;-75
2022/08/25 08:21:14;;;;;;;11.60;9.52;;;24.20;82.50;;;;;;5011956;28;20029;-75
2022/08/25 08:23:40;;;;;;;9.57;8.52;;;24.20;82.30;;;;;;5005122;28;20033;-75
2022/08/25 08:26:05;;;;;;;11.25;10.02;;;24.10;82.70;;;;;;5009906;28;20044;-75
2022/08/25 08:28:31;;;;;;;9.38;8.45;;;24.10;82.60;;;;;;5014962;28;20446;-75
2022/08/25 08:30:57;;;;;;;10.05;9.05;;;24.20;82.70;;;;;;5029039;28;20474;-75
2022/08/25 08:33:24;;;;;;;9.43;8.45;;;24.20;82.60;;;;;;5018126;28;20468;-75
2022/08/25 08:36:08;;;;;;;11.18;8.23;;;24.20;82.70;;;;;;5013543;28;20495;-75
2022/08/25 08:38:35;;;;;;;11.38;9.20;;;24.20;82.90;;;;;;5007499;28;20475;-75
2022/08/25 08:44:44;;;;;;;10.35;9.32;;;24.10;82.90;;;;;;5012407;28;20076;-75
2022/08/25 08:47:38;;;;;;;10.10;8.80;;;24.10;82.80;;;;;;5011084;28;20030;-75
2022/08/25 08:50:15;;;;;;;10.07;9.05;;;24.10;82.90;;;;;;5007525;28;20032;-76
2022/08/25 08:53:04;;;;;;;12.07;8.40;;;24.10;82.80;;;;;;5007686;28;20037;-75
2022/08/25 08:55:43;;;;;;;9.45;8.38;;;24.10;82.90;;;;;;5009250;28;20108;-75
2022/08/25 08:58:29;;;;;;;10.18;8.55;;;24.10;82.90;;;;;;5011281;28;20034;-75
2022/08/25 09:00:57;;;;;;;9.32;8.35;;;24.10;82.90;;;;;;5007573;28;20516;-76
2022/08/25 09:03:55;;;;;;;9.25;8.35;;;24.10;83.50;;;;;;5012050;28;20033;-75
2022/08/25 09:06:31;;;;;;;10.15;8.88;;;24.10;83.10;;;;;;5030805;28;20034;-76
2022/08/25 09:09:00;;;;;;;9.88;8.88;;;24.10;83.00;;;;;;5005984;28;20065;-75
2022/08/25 09:11:48;;;;;;;10.63;8.50;;;24.10;83.00;;;;;;5002670;28;20041;-76
2022/08/25 09:14:32;;;;;;;8.60;7.80;;;24.10;83.10;;;;;;5004431;28;20025;-75
2022/08/25 09:17:20;;;;;;;10.50;8.73;;;24.10;83.00;;;;;;5012297;28;20064;-75
2022/08/25 09:20:26;;;;;;;10.65;9.32;;;24.10;83.20;;;;;;5013000;28;20064;-75
2022/08/25 09:23:07;;;;;;;9.57;8.57;;;24.10;83.30;;;;;;5009936;28;20033;-75
2022/08/25 09:25:51;;;;;;;9.45;8.55;;;24.10;83.50;;;;;;5007740;28;20037;-75
2022/08/25 09:28:26;;;;;;;11.00;8.90;;;24.10;83.20;;;;;;5013494;28;20452;-76
2022/08/25 09:31:02;;;;;;;12.93;9.43;;;24.10;83.60;;;;;;5011996;28;20117;-75
2022/08/25 09:33:32;;;;;;;10.57;8.60;;;24.20;83.70;;;;;;5008846;28;20537;-75
2022/08/25 09:35:58;;;;;;;10.50;9.40;;;24.10;83.50;;;;;;5021860;28;20498;-76
2022/08/25 09:38:27;;;;;;;11.10;9.32;;;24.20;83.30;;;;;;5011428;28;20037;-76
2022/08/25 09:40:57;;;;;;;8.50;7.57;;;24.20;83.40;;;;;;5005014;28;20029;-76
2022/08/25 09:43:30;;;;;;;11.18;7.85;;;24.10;84.00;;;;;;5007012;28;20499;-75
2022/08/25 09:46:22;;;;;;;9.15;7.68;;;24.20;83.30;;;;;;5014263;28;20038;-76
2022/08/25 09:48:52;;;;;;;8.82;7.68;;;24.20;83.20;;;;;;5020451;28;20037;-75
2022/08/25 09:51:32;;;;;;;10.43;8.27;;;24.20;83.20;;;;;;5012448;28;20034;-76
2022/08/25 09:54:19;;;;;;;9.75;8.75;;;24.20;83.60;;;;;;5012166;28;20055;-76
2022/08/25 09:56:54;;;;;;;9.65;8.65;;;24.20;83.50;;;;;;5001379;28;20033;-77
2022/08/25 09:59:20;;;;;;;13.00;8.38;;;24.20;83.30;;;;;;5000409;28;20034;-76
2022/08/25 10:01:56;;;;;;;10.10;8.95;;;24.20;83.20;;;;;;5020381;28;20360;-75
2022/08/25 10:04:31;;;;;;;9.85;8.85;;;24.20;84.50;;;;;;5001612;28;20498;-77
2022/08/25 10:06:58;;;;;;;11.73;8.45;;;24.20;83.70;;;;;;5007240;28;20053;-76
2022/08/25 10:09:41;;;;;;;9.93;8.85;;;24.20;83.60;;;;;;5022646;28;20053;-77
2022/08/25 10:12:23;;;;;;;9.15;8.25;;;24.20;83.40;;;;;;5006413;28;20344;-77
2022/08/25 10:14:50;;;;;;;8.60;7.68;;;24.20;83.40;;;;;;5010078;28;20029;-76
2022/08/25 10:17:32;;;;;;;8.77;7.90;;;24.20;83.20;;;;;;5007876;28;20029;-76
2022/08/25 10:20:10;;;;;;;10.70;8.43;;;24.20;83.10;;;;;;5005537;28;20041;-77
2022/08/25 10:22:38;;;;;;;10.02;8.80;;;24.20;83.10;;;;;;5006639;28;20112;-77
2022/08/25 10:25:07;;;;;;;10.13;8.20;;;24.20;83.30;;;;;;5008659;28;20449;-75
2022/08/25 10:27:39;;;;;;;10.82;8.52;;;24.20;83.30;;;;;;5007010;28;20030;-76
2022/08/25 10:30:15;;;;;;;9.10;8.20;;;24.20;83.40;;;;;;5003722;28;20483;-77
2022/08/25 10:33:14;;;;;;;12.38;9.95;;;24.20;83.30;;;;;;5005526;28;20059;-77
2022/08/25 10:36:29;;;;;;;10.75;8.93;;;24.20;83.50;;;;;;4998867;28;20046;-77
2022/08/25 10:39:00;;;;;;;9.50;8.50;;;24.20;83.40;;;;;;4994232;28;20173;-77
2022/08/25 10:41:47;;;;;;;11.93;7.93;;;24.20;83.30;;;;;;5009843;28;20026;-77
2022/08/25 10:47:16;;;;;;;10.32;8.43;;;24.20;83.10;;;;;;5001204;28;20490;-77
2022/08/25 10:49:50;;;;;;;9.15;8.05;;;24.20;83.30;;;;;;5005740;28;20513;-77
2022/08/25 10:52:26;;;;;;;9.27;8.20;;;24.20;83.30;;;;;;5009343;28;20062;-76
2022/08/25 10:55:18;;;;;;;8.35;7.45;;;24.20;83.30;;;;;;5009053;28;20490;-77
2022/08/25 10:58:09;;;;;;;10.32;8.02;;;24.20;83.40;;;;;;5004822;28;20058;-77
2022/08/25 11:00:53;;;;;;;9.25;8.23;;;24.20;83.50;;;;;;5012706;28;20032;-76
2022/08/25 11:03:28;;;;;;;8.80;7.90;;;24.20;83.40;;;;;;5005452;28;20115;-77
2022/08/25 11:06:05;;;;;;;9.48;7.88;;;24.10;83.50;;;;;;5003446;28;20049;-76
2022/08/25 11:08:36;;;;;;;9.73;8.32;;;24.20;83.50;;;;;;5007745;28;20367;-76
2022/08/25 11:11:02;;;;;;;10.50;8.45;;;24.20;83.60;;;;;;5007611;28;20037;-76
2022/08/25 11:13:54;;;;;;;9.52;7.85;;;24.20;83.50;;;;;;5005495;28;20022;-77
2022/08/25 11:16:49;;;;;;;9.77;8.77;;;24.20;83.70;;;;;;4999044;28;20068;-77
2022/08/25 11:19:15;;;;;;;10.98;8.65;;;24.20;83.60;;;;;;5002442;28;20029;-77
2022/08/25 11:21:59;;;;;;;9.52;8.23;;;24.20;83.50;;;;;;5006616;28;20106;-75
2022/08/25 11:24:37;;;;;;;9.20;8.30;;;24.20;83.50;;;;;;5010672;28;20458;-76
2022/08/25 11:27:08;;;;;;;11.27;7.47;;;24.20;83.40;;;;;;5000562;28;20030;-76
2022/08/25 11:29:36;;;;;;;9.23;7.93;;;24.20;83.20;;;;;;5009122;28;20533;-76
2022/08/25 11:32:03;;;;;;;9.90;7.78;;;24.20;83.20;;;;;;5002549;28;20118;-76
2022/08/25 11:34:35;;;;;;;11.05;8.52;;;24.20;83.10;;;;;;5012322;28;20033;-76
2022/08/25 11:37:26;;;;;;;12.23;8.80;;;24.20;83.20;;;;;;5004607;28;20033;-76
2022/08/25 11:40:16;;;;;;;8.80;7.90;;;24.30;83.30;;;;;;5006459;28;20061;-76
2022/08/25 11:43:00;;;;;;;10.10;8.52;;;24.20;83.20;;;;;;5009392;28;20025;-76
2022/08/25 11:45:47;;;;;;;9.23;8.20;;;24.20;83.10;;;;;;5010948;28;20048;-76
2022/08/25 11:48:25;;;;;;;9.30;7.63;;;24.20;83.20;;;;;;5002419;28;20033;-76
2022/08/25 11:51:07;;;;;;;9.50;8.13;;;24.20;83.00;;;;;;5009968;28;20026;-76
2022/08/25 11:53:46;;;;;;;12.82;8.32;;;24.20;83.30;;;;;;5010447;28;20164;-76
2022/08/25 11:56:31;;;;;;;8.52;7.63;;;24.20;83.20;;;;;;5004754;28;20022;-76
2022/08/25 11:58:57;;;;;;;12.50;8.43;;;24.20;83.30;;;;;;5006301;28;20030;-76
2022/08/25 12:01:38;;;;;;;9.15;8.15;;;24.20;83.00;;;;;;5012658;28;20029;-76
2022/08/25 12:04:54;;;;;;;11.43;9.00;;;24.20;83.10;;;;;;5009198;28;20034;-76
2022/08/25 12:07:23;;;;;;;13.75;8.75;;;24.30;83.20;;;;;;5010483;28;20402;-76
2022/08/25 12:09:49;;;;;;;12.10;8.98;;;24.20;83.10;;;;;;5012392;28;20065;-76
2022/08/25 12:12:44;;;;;;;12.20;9.32;;;24.20;83.10;;;;;;5009510;28;20025;-76
2022/08/25 12:15:30;;;;;;;11.73;8.73;;;24.30;83.20;;;;;;5011292;28;20025;-76
2022/08/25 12:18:21;;;;;;;10.10;8.90;;;24.30;83.20;;;;;;5008350;28;20111;-76
2022/08/25 12:20:55;;;;;;;9.90;8.48;;;24.30;83.70;;;;;;5021981;28;20033;-76
2022/08/25 12:23:43;;;;;;;14.38;8.90;;;24.30;83.10;;;;;;5013201;28;20056;-76
2022/08/25 12:26:43;;;;;;;8.45;7.40;;;24.30;83.00;;;;;;5005835;28;20117;-76
2022/08/25 12:29:33;;;;;;;9.50;8.52;;;24.30;83.00;;;;;;5013309;28;20029;-76
2022/08/25 12:32:14;;;;;;;9.38;8.48;;;24.30;83.00;;;;;;5006315;28;20042;-76
2022/08/25 12:35:05;;;;;;;14.52;8.80;;;24.20;82.90;;;;;;5009201;28;20079;-76
2022/08/25 12:37:31;;;;;;;8.98;8.07;;;24.30;82.90;;;;;;5015981;28;20029;-76
2022/08/25 12:40:01;;;;;;;9.07;7.90;;;24.30;82.90;;;;;;5012275;28;20514;-76
2022/08/25 12:42:38;;;;;;;9.30;7.88;;;24.30;82.80;;;;;;5003900;28;20101;-76
2022/08/25 12:45:12;;;;;;;9.77;8.77;;;24.30;82.80;;;;;;5009165;28;20079;-76
2022/08/25 12:47:41;;;;;;;10.32;8.00;;;24.30;82.70;;;;;;5010298;28;20057;-76
2022/08/25 12:50:39;;;;;;;9.88;8.88;;;24.30;82.70;;;;;;5003898;28;20487;-76
2022/08/25 12:53:29;;;;;;;9.90;8.90;;;24.30;82.70;;;;;;5010826;28;20030;-76
2022/08/25 12:56:30;;;;;;;12.52;8.63;;;24.30;82.60;;;;;;5009999;28;20525;-76
2022/08/25 12:59:07;;;;;;;9.45;8.02;;;24.30;82.60;;;;;;5008492;28;20052;-77
2022/08/25 13:01:59;;;;;;;9.38;8.38;;;24.30;82.60;;;;;;5007684;28;20050;-76
2022/08/25 13:04:31;;;;;;;9.50;8.55;;;24.30;83.20;;;;;;5013490;28;20034;-77
2022/08/25 13:07:15;;;;;;;8.80;7.90;;;24.30;82.60;;;;;;5013345;28;20033;-76
2022/08/25 13:09:57;;;;;;;9.85;8.85;;;24.30;82.50;;;;;;5031953;28;20037;-76
2022/08/25 13:12:50;;;;;;;9.75;8.55;;;24.30;82.60;;;;;;5012228;28;20030;-75
2022/08/25 13:15:37;;;;;;;8.73;7.85;;;24.30;82.50;;;;;;4999526;28;20037;-76
2022/08/25 13:18:21;;;;;;;9.63;8.55;;;24.30;82.50;;;;;;5010016;28;20380;-76
2022/08/25 13:21:15;;;;;;;8.35;7.55;;;24.40;82.60;;;;;;5013419;28;20433;-76